createdAt,value
2018-12-27T00:00:05.583Z,2.80
2018-12-27T00:02:34.922Z,2.70
2018-12-27T00:05:04.633Z,2.80
2018-12-27T00:07:34.158Z,2.70
2018-12-27T00:10:03.870Z,2.80
2018-12-27T00:12:33.693Z,2.80
2018-12-27T00:15:03.397Z,2.70
2018-12-27T00:17:32.881Z,2.80
2018-12-27T00:20:02.479Z,2.80
2018-12-27T00:22:32.204Z,2.70
2018-12-27T00:25:01.566Z,2.70
2018-12-27T00:27:31.135Z,2.70
2018-12-27T00:30:01.492Z,2.50
2018-12-27T00:32:31.260Z,2.50
2018-12-27T00:35:00.822Z,2.50
2018-12-27T00:37:30.713Z,2.40
2018-12-27T00:40:00.539Z,2.40
2018-12-27T00:42:30.642Z,2.50
2018-12-27T00:45:00.286Z,2.40
2018-12-27T00:47:30.141Z,2.30
2018-12-27T00:49:59.798Z,2.30
2018-12-27T00:52:29.520Z,2.30
2018-12-27T00:54:59.041Z,2.30
2018-12-27T00:57:28.617Z,2.40
2018-12-27T00:59:58.159Z,2.50
2018-12-27T01:02:27.694Z,2.50
2018-12-27T01:04:57.418Z,2.50
2018-12-27T01:07:26.965Z,2.50
2018-12-27T01:09:56.475Z,2.50
2018-12-27T01:12:26.076Z,2.50
2018-12-27T01:14:55.700Z,2.50
2018-12-27T01:17:25.507Z,2.50
2018-12-27T01:19:55.226Z,2.40
2018-12-27T01:22:25.011Z,2.30
2018-12-27T01:24:54.510Z,2.20
2018-12-27T01:27:24.126Z,2.20
2018-12-27T01:29:53.722Z,2.30
2018-12-27T01:32:23.747Z,2.20
2018-12-27T01:34:53.527Z,2.10
2018-12-27T01:37:23.004Z,2.10
2018-12-27T01:39:54.521Z,2.10
2018-12-27T01:42:24.118Z,2.20
2018-12-27T01:44:53.641Z,2.30
2018-12-27T01:47:23.177Z,2.30
2018-12-27T01:49:52.891Z,2.20
2018-12-27T01:52:22.426Z,2.20
2018-12-27T01:54:51.953Z,2.20
2018-12-27T01:57:21.587Z,2.20
2018-12-27T01:59:51.118Z,2.20
2018-12-27T02:02:20.735Z,2.30
2018-12-27T02:04:50.250Z,2.40
2018-12-27T02:07:19.761Z,2.40
2018-12-27T02:09:49.357Z,2.40
2018-12-27T02:12:19.344Z,2.50
2018-12-27T02:14:48.980Z,2.50
2018-12-27T02:17:18.487Z,2.50
2018-12-27T02:19:48.181Z,2.60
2018-12-27T02:22:17.732Z,2.40
2018-12-27T02:24:47.311Z,2.30
2018-12-27T02:27:16.842Z,2.30
2018-12-27T02:29:46.542Z,2.30
2018-12-27T02:32:16.572Z,2.20
2018-12-27T02:34:46.424Z,2.20
2018-12-27T02:37:16.186Z,2.10
2018-12-27T02:39:46.014Z,2.10
2018-12-27T02:42:15.667Z,2.10
2018-12-27T02:44:45.346Z,2.10
2018-12-27T02:47:15.177Z,2.20
2018-12-27T02:49:44.666Z,2.20
2018-12-27T02:52:14.219Z,2.20
2018-12-27T02:54:43.725Z,2.30
2018-12-27T02:57:13.538Z,2.40
2018-12-27T02:59:43.023Z,2.40
2018-12-27T03:02:12.559Z,2.50
2018-12-27T03:04:42.054Z,2.30
2018-12-27T03:07:11.761Z,2.30
2018-12-27T03:09:41.274Z,2.20
2018-12-27T03:12:11.123Z,2.20
2018-12-27T03:14:41.061Z,2.00
2018-12-27T03:17:10.587Z,2.10
2018-12-27T03:19:40.112Z,2.10
2018-12-27T03:22:09.693Z,2.00
2018-12-27T03:24:39.228Z,2.00
2018-12-27T03:27:08.776Z,1.90
2018-12-27T03:29:38.436Z,1.90
2018-12-27T03:32:07.935Z,1.90
2018-12-27T03:34:37.565Z,1.90
2018-12-27T03:37:07.061Z,2.00
2018-12-27T03:39:36.771Z,2.00
2018-12-27T03:42:06.274Z,2.00
2018-12-27T03:44:35.928Z,2.00
2018-12-27T03:47:05.768Z,2.00
2018-12-27T03:49:35.569Z,2.00
2018-12-27T03:52:05.064Z,2.00
2018-12-27T03:54:34.709Z,2.00
2018-12-27T03:57:04.263Z,1.90
2018-12-27T03:59:33.939Z,1.90
2018-12-27T04:02:03.530Z,1.70
2018-12-27T04:04:33.106Z,1.70
2018-12-27T04:07:02.599Z,1.50
2018-12-27T04:09:32.183Z,1.50
2018-12-27T04:12:01.694Z,1.40
2018-12-27T04:14:31.335Z,1.30
2018-12-27T04:17:00.700Z,1.30
2018-12-27T04:19:30.061Z,1.40
2018-12-27T04:21:59.649Z,1.40
2018-12-27T04:24:29.627Z,1.40
2018-12-27T04:26:59.096Z,1.40
2018-12-27T04:29:28.438Z,1.40
2018-12-27T04:31:59.747Z,1.40
2018-12-27T04:34:30.476Z,1.50
2018-12-27T04:37:00.854Z,1.50
2018-12-27T04:39:30.265Z,1.40
2018-12-27T04:42:00.283Z,1.40
2018-12-27T04:44:29.877Z,1.40
2018-12-27T04:46:59.474Z,1.40
2018-12-27T04:49:28.846Z,1.30
2018-12-27T04:51:58.262Z,1.30
2018-12-27T04:54:27.752Z,1.30
2018-12-27T04:56:57.272Z,1.20
2018-12-27T04:59:26.658Z,1.30
2018-12-27T05:01:56.209Z,1.30
2018-12-27T05:04:25.699Z,1.40
2018-12-27T05:06:55.193Z,1.30
2018-12-27T05:09:24.659Z,1.40
2018-12-27T05:11:54.183Z,1.40
2018-12-27T05:14:23.658Z,1.30
2018-12-27T05:16:53.097Z,1.20
2018-12-27T05:19:22.573Z,1.20
2018-12-27T05:21:52.258Z,1.30
2018-12-27T05:24:21.967Z,1.40
2018-12-27T05:26:51.509Z,1.40
2018-12-27T05:29:20.885Z,1.40
2018-12-27T05:31:51.725Z,1.40
2018-12-27T05:34:26.235Z,1.50
2018-12-27T05:36:53.068Z,1.50
2018-12-27T05:39:22.966Z,1.50
2018-12-27T05:41:52.537Z,1.60
2018-12-27T05:44:22.147Z,1.50
2018-12-27T05:46:51.493Z,1.60
2018-12-27T05:49:20.884Z,1.60
2018-12-27T05:51:50.245Z,1.60
2018-12-27T05:54:19.774Z,1.60
2018-12-27T05:56:49.544Z,1.50
2018-12-27T05:59:18.932Z,1.50
2018-12-27T06:01:48.456Z,1.60
2018-12-27T06:04:18.138Z,1.60
2018-12-27T06:06:47.606Z,1.60
2018-12-27T06:09:17.059Z,1.60
2018-12-27T06:11:46.689Z,1.50
2018-12-27T06:14:16.145Z,1.50
2018-12-27T06:16:45.659Z,1.50
2018-12-27T06:19:15.090Z,1.50
2018-12-27T06:21:44.761Z,1.60
2018-12-27T06:24:14.189Z,1.60
2018-12-27T06:26:43.697Z,1.40
2018-12-27T06:29:13.300Z,1.40
2018-12-27T06:31:43.000Z,1.40
2018-12-27T06:34:12.377Z,1.50
2018-12-27T06:36:41.865Z,1.50
2018-12-27T06:39:11.410Z,1.60
2018-12-27T06:41:42.653Z,1.70
2018-12-27T06:44:12.030Z,1.70
2018-12-27T06:46:41.405Z,1.80
2018-12-27T06:49:10.816Z,1.70
2018-12-27T06:51:40.236Z,1.80
2018-12-27T06:54:09.620Z,1.70
2018-12-27T06:56:39.122Z,1.70
2018-12-27T06:59:08.686Z,1.80
2018-12-27T07:01:38.222Z,1.90
2018-12-27T07:04:07.894Z,2.00
2018-12-27T07:06:37.491Z,1.90
2018-12-27T07:09:08.768Z,1.80
2018-12-27T07:11:38.559Z,1.90
2018-12-27T07:14:08.085Z,1.90
2018-12-27T07:16:37.758Z,2.00
2018-12-27T07:19:07.116Z,2.00
2018-12-27T07:21:36.457Z,2.10
2018-12-27T07:24:05.956Z,2.10
2018-12-27T07:26:35.297Z,2.20
2018-12-27T07:29:04.701Z,2.30
2018-12-27T07:31:34.627Z,2.40
2018-12-27T07:34:04.168Z,2.40
2018-12-27T07:36:33.592Z,2.40
2018-12-27T07:39:04.627Z,2.30
2018-12-27T07:41:34.173Z,2.30
2018-12-27T07:44:03.815Z,2.30
2018-12-27T07:46:33.187Z,2.30
2018-12-27T07:49:02.707Z,2.20
2018-12-27T07:51:32.088Z,2.00
2018-12-27T07:54:01.631Z,1.90
2018-12-27T07:56:31.031Z,1.90
2018-12-27T07:59:00.411Z,1.80
2018-12-27T08:01:29.951Z,2.00
2018-12-27T08:03:59.309Z,2.20
2018-12-27T08:06:28.873Z,2.30
2018-12-27T08:08:58.421Z,2.30
2018-12-27T08:11:27.947Z,2.40
2018-12-27T08:13:57.528Z,2.50
2018-12-27T08:16:27.045Z,2.60
2018-12-27T08:18:56.534Z,2.60
2018-12-27T08:21:26.190Z,2.60
2018-12-27T08:23:55.669Z,2.60
2018-12-27T08:26:25.371Z,2.50
2018-12-27T08:28:56.738Z,2.50
2018-12-27T08:31:26.477Z,2.40
2018-12-27T08:33:55.851Z,2.40
2018-12-27T08:36:25.741Z,2.50
2018-12-27T08:38:55.117Z,2.50
2018-12-27T08:41:24.678Z,2.50
2018-12-27T08:43:55.139Z,2.50
2018-12-27T08:46:24.570Z,2.60
2018-12-27T08:48:54.217Z,2.60
2018-12-27T08:51:23.698Z,2.60
2018-12-27T08:53:53.093Z,2.60
2018-12-27T08:56:22.620Z,2.60
2018-12-27T08:58:52.343Z,2.60
2018-12-27T09:01:21.734Z,2.60
2018-12-27T09:03:51.471Z,2.70
2018-12-27T09:06:20.873Z,2.70
2018-12-27T09:08:50.598Z,2.80
2018-12-27T09:11:20.146Z,2.80
2018-12-27T09:13:50.059Z,2.80
2018-12-27T09:16:19.606Z,2.80
2018-12-27T09:18:49.215Z,2.80
2018-12-27T09:21:18.767Z,2.70
2018-12-27T09:23:48.407Z,2.70
2018-12-27T09:26:17.937Z,2.80
2018-12-27T09:28:47.613Z,2.70
2018-12-27T09:31:17.193Z,2.80
2018-12-27T09:33:46.893Z,2.70
2018-12-27T09:36:16.355Z,2.60
2018-12-27T09:38:45.947Z,2.50
2018-12-27T09:41:15.401Z,2.40
2018-12-27T09:43:44.767Z,2.40
2018-12-27T09:46:14.361Z,2.40
2018-12-27T09:48:43.860Z,2.50
2018-12-27T09:51:13.480Z,2.60
2018-12-27T09:53:43.195Z,2.70
2018-12-27T09:56:12.694Z,2.80
2018-12-27T09:58:42.069Z,2.80
2018-12-27T10:01:11.609Z,2.80
2018-12-27T10:03:41.434Z,2.90
2018-12-27T10:06:10.921Z,2.80
2018-12-27T10:08:40.516Z,2.90
2018-12-27T10:11:10.730Z,2.90
2018-12-27T10:13:40.332Z,2.90
2018-12-27T10:16:09.966Z,3.00
2018-12-27T10:18:39.541Z,3.00
2018-12-27T10:21:09.044Z,3.10
2018-12-27T10:23:38.457Z,3.10
2018-12-27T10:26:08.092Z,2.90
2018-12-27T10:28:37.733Z,2.80
2018-12-27T10:31:07.308Z,2.70
2018-12-27T10:33:37.232Z,2.70
2018-12-27T10:36:06.635Z,2.70
2018-12-27T10:38:36.084Z,2.70
2018-12-27T10:41:05.436Z,2.70
2018-12-27T10:43:35.309Z,2.70
2018-12-27T10:46:04.838Z,2.80
2018-12-27T10:48:34.214Z,2.90
2018-12-27T10:51:03.585Z,2.90
2018-12-27T10:53:33.056Z,3.00
2018-12-27T10:56:02.531Z,3.00
2018-12-27T10:58:32.155Z,2.90
2018-12-27T11:01:01.720Z,2.60
2018-12-27T11:03:31.266Z,2.70
2018-12-27T11:06:00.685Z,2.60
2018-12-27T11:08:30.085Z,2.60
2018-12-27T11:10:59.863Z,2.60
2018-12-27T11:13:29.633Z,2.60
2018-12-27T11:15:59.049Z,2.70
2018-12-27T11:18:28.611Z,2.70
2018-12-27T11:20:58.075Z,2.60
2018-12-27T11:23:27.708Z,2.60
2018-12-27T11:25:58.887Z,2.50
2018-12-27T11:28:28.567Z,2.40
2018-12-27T11:30:58.142Z,2.40
2018-12-27T11:33:27.685Z,2.40
2018-12-27T11:35:57.128Z,2.50
2018-12-27T11:38:26.598Z,2.60
2018-12-27T11:40:56.014Z,2.60
2018-12-27T11:43:25.525Z,2.70
2018-12-27T11:45:55.109Z,2.90
2018-12-27T11:48:24.676Z,2.90
2018-12-27T11:50:54.328Z,2.90
2018-12-27T11:53:23.720Z,2.90
2018-12-27T11:55:54.883Z,3.00
2018-12-27T11:58:24.812Z,2.80
2018-12-27T12:00:54.351Z,2.80
2018-12-27T12:03:23.941Z,2.80
2018-12-27T12:05:53.364Z,2.90
2018-12-27T12:08:23.095Z,2.90
2018-12-27T12:10:52.590Z,2.90
2018-12-27T12:13:22.068Z,3.00
2018-12-27T12:15:51.840Z,3.00
2018-12-27T12:18:21.250Z,3.10
2018-12-27T12:20:50.629Z,3.10
2018-12-27T12:23:20.071Z,3.10
2018-12-27T12:25:49.778Z,2.90
2018-12-27T12:28:19.200Z,3.00
2018-12-27T12:30:48.777Z,3.00
2018-12-27T12:33:18.368Z,3.00
2018-12-27T12:35:47.923Z,3.00
2018-12-27T12:38:17.851Z,3.00
2018-12-27T12:40:47.538Z,3.00
2018-12-27T12:43:17.070Z,3.10
2018-12-27T12:45:46.740Z,3.00
2018-12-27T12:48:16.138Z,3.10
2018-12-27T12:50:45.688Z,3.20
2018-12-27T12:53:15.251Z,3.20
2018-12-27T12:55:44.861Z,3.30
2018-12-27T12:58:14.580Z,3.30
2018-12-27T13:00:43.954Z,3.40
2018-12-27T13:03:13.471Z,3.40
2018-12-27T13:05:43.157Z,3.50
2018-12-27T13:08:12.656Z,3.50
2018-12-27T13:10:42.212Z,3.60
2018-12-27T13:13:11.655Z,3.60
2018-12-27T13:15:41.222Z,3.30
2018-12-27T13:18:10.750Z,3.30
2018-12-27T13:20:40.247Z,3.20
2018-12-27T13:23:10.004Z,3.20
2018-12-27T13:25:39.485Z,3.30
2018-12-27T13:28:09.005Z,3.30
2018-12-27T13:30:38.436Z,3.40
2018-12-27T13:33:08.068Z,3.40
2018-12-27T13:35:37.634Z,3.50
2018-12-27T13:38:07.162Z,3.50
2018-12-27T13:40:36.870Z,3.60
2018-12-27T13:43:06.360Z,3.60
2018-12-27T13:45:35.926Z,3.60
2018-12-27T13:48:05.436Z,3.50
2018-12-27T13:50:34.991Z,3.50
2018-12-27T13:53:04.341Z,3.50
2018-12-27T13:55:33.901Z,3.50
2018-12-27T13:58:03.271Z,3.30
2018-12-27T14:00:32.900Z,3.20
2018-12-27T14:03:02.529Z,3.10
2018-12-27T14:05:32.909Z,2.90
2018-12-27T14:08:02.412Z,3.00
2018-12-27T14:10:31.905Z,3.00
2018-12-27T14:13:01.376Z,3.10
2018-12-27T14:15:31.076Z,3.10
2018-12-27T14:18:00.427Z,3.10
2018-12-27T14:20:30.153Z,3.10
2018-12-27T14:22:59.575Z,3.10
2018-12-27T14:25:28.999Z,3.00
2018-12-27T14:27:58.693Z,3.10
2018-12-27T14:30:28.147Z,3.10
2018-12-27T14:32:57.745Z,3.10
2018-12-27T14:35:27.310Z,3.10
2018-12-27T14:37:56.835Z,3.10
2018-12-27T14:40:26.469Z,3.10
2018-12-27T14:42:57.862Z,3.10
2018-12-27T14:45:27.362Z,3.10
2018-12-27T14:47:56.954Z,3.20
2018-12-27T14:50:26.566Z,3.10
2018-12-27T14:52:56.248Z,3.10
2018-12-27T14:55:25.764Z,3.00
2018-12-27T14:57:55.388Z,2.90
2018-12-27T15:00:25.665Z,3.00
2018-12-27T15:02:55.276Z,3.00
2018-12-27T15:05:24.911Z,2.90
2018-12-27T15:07:54.571Z,2.90
2018-12-27T15:10:24.057Z,2.90
2018-12-27T15:12:53.401Z,2.90
2018-12-27T15:15:23.365Z,2.80
2018-12-27T15:17:52.818Z,2.70
2018-12-27T15:20:22.293Z,2.70
2018-12-27T15:22:51.672Z,2.70
2018-12-27T15:25:21.046Z,2.80
2018-12-27T15:27:50.674Z,2.80
2018-12-27T15:30:20.262Z,2.90
2018-12-27T15:32:51.887Z,2.90
2018-12-27T15:35:21.277Z,2.90
2018-12-27T15:37:50.748Z,2.90
2018-12-27T15:40:20.537Z,2.90
2018-12-27T15:42:49.879Z,2.90
2018-12-27T15:45:19.275Z,2.90
2018-12-27T15:47:48.774Z,2.90
2018-12-27T15:50:18.397Z,2.80
2018-12-27T15:52:49.680Z,2.80
2018-12-27T15:55:19.569Z,2.80
2018-12-27T15:57:49.060Z,2.80
2018-12-27T16:00:18.615Z,2.90
2018-12-27T16:02:48.067Z,2.90
2018-12-27T16:05:17.479Z,2.80
2018-12-27T16:07:47.087Z,2.80
2018-12-27T16:10:17.846Z,2.80
2018-12-27T16:12:47.373Z,2.80
2018-12-27T16:15:17.116Z,2.90
2018-12-27T16:17:46.713Z,2.90
2018-12-27T16:20:16.324Z,2.90
2018-12-27T16:22:45.836Z,2.90
2018-12-27T16:25:15.407Z,2.90
2018-12-27T16:27:46.467Z,2.90
2018-12-27T16:30:16.045Z,2.80
2018-12-27T16:32:49.395Z,2.90
2018-12-27T16:35:18.955Z,2.90
2018-12-27T16:37:48.572Z,2.90
2018-12-27T16:40:18.300Z,3.00
2018-12-27T16:42:48.033Z,3.00
2018-12-27T16:45:17.423Z,3.00
2018-12-27T16:47:46.830Z,3.00
2018-12-27T16:50:16.483Z,3.00
2018-12-27T16:52:45.966Z,3.00
2018-12-27T16:55:15.799Z,3.00
2018-12-27T16:57:45.334Z,3.10
2018-12-27T17:00:15.014Z,3.10
2018-12-27T17:02:44.381Z,3.20
2018-12-27T17:05:13.818Z,3.30
2018-12-27T17:07:43.364Z,3.30
2018-12-27T17:10:13.764Z,3.40
2018-12-27T17:12:43.465Z,3.30
2018-12-27T17:15:13.028Z,3.30
2018-12-27T17:17:42.522Z,3.30
2018-12-27T17:20:12.099Z,3.30
2018-12-27T17:22:41.601Z,3.30
2018-12-27T17:25:11.029Z,3.30
2018-12-27T17:27:40.533Z,3.30
2018-12-27T17:30:10.335Z,3.30
2018-12-27T17:32:39.875Z,3.30
2018-12-27T17:35:09.444Z,3.30
2018-12-27T17:37:38.865Z,3.40
2018-12-27T17:40:09.569Z,3.40
2018-12-27T17:42:39.585Z,3.30
2018-12-27T17:45:09.353Z,3.40
2018-12-27T17:47:38.826Z,3.30
2018-12-27T17:50:08.755Z,3.20
2018-12-27T17:52:40.111Z,3.20
2018-12-27T17:55:09.760Z,3.20
2018-12-27T17:57:39.217Z,3.20
2018-12-27T18:00:09.181Z,3.20
2018-12-27T18:02:38.911Z,3.30
2018-12-27T18:05:08.418Z,3.20
2018-12-27T18:07:38.002Z,3.20
2018-12-27T18:10:07.713Z,3.10
2018-12-27T18:12:37.512Z,3.10
2018-12-27T18:15:07.549Z,3.00
2018-12-27T18:17:36.979Z,2.90
2018-12-27T18:20:06.942Z,2.80
2018-12-27T18:22:36.317Z,2.70
2018-12-27T18:25:06.523Z,2.70
2018-12-27T18:27:35.966Z,2.60
2018-12-27T18:30:06.239Z,2.60
2018-12-27T18:32:35.848Z,2.60
2018-12-27T18:35:05.593Z,2.70
2018-12-27T18:37:37.910Z,2.70
2018-12-27T18:40:06.582Z,2.70
2018-12-27T18:42:36.227Z,2.60
2018-12-27T18:45:06.496Z,2.60
2018-12-27T18:47:36.303Z,2.60
2018-12-27T18:50:05.964Z,2.60
2018-12-27T18:52:35.289Z,2.60
2018-12-27T18:55:05.235Z,2.60
2018-12-27T18:57:34.731Z,2.60
2018-12-27T19:00:04.952Z,2.60
2018-12-27T19:02:34.335Z,2.60
2018-12-27T19:05:04.200Z,2.60
2018-12-27T19:07:35.385Z,2.60
2018-12-27T19:10:05.466Z,2.70
2018-12-27T19:13:15.506Z,2.70
2018-12-27T19:15:51.608Z,2.70
2018-12-27T19:18:32.950Z,2.80
2018-12-27T19:21:23.493Z,2.80
2018-12-27T19:23:53.198Z,2.90
2018-12-27T19:26:22.673Z,2.90
2018-12-27T19:28:52.133Z,2.90
2018-12-27T19:31:21.859Z,2.90
2018-12-27T19:33:51.384Z,2.90
2018-12-27T19:36:20.948Z,3.00
2018-12-27T19:38:50.421Z,3.00
2018-12-27T19:41:20.123Z,2.90
2018-12-27T19:43:49.728Z,2.90
2018-12-27T19:46:19.238Z,2.80
2018-12-27T19:48:48.651Z,2.80
2018-12-27T19:51:20.115Z,2.70
2018-12-27T19:53:49.595Z,2.70
2018-12-27T19:56:19.221Z,2.70
2018-12-27T19:58:48.665Z,2.70
2018-12-27T20:01:18.604Z,2.60
2018-12-27T20:03:48.349Z,2.60
2018-12-27T20:06:18.113Z,2.60
2018-12-27T20:08:47.478Z,2.70
2018-12-27T20:11:17.075Z,2.70
2018-12-27T20:13:46.720Z,2.70
2018-12-27T20:16:16.168Z,2.80
2018-12-27T20:18:45.676Z,2.80
2018-12-27T20:21:15.337Z,2.80
2018-12-27T20:23:44.914Z,2.80
2018-12-27T20:26:14.324Z,2.80
2018-12-27T20:28:43.925Z,2.80
2018-12-27T20:31:13.337Z,2.80
2018-12-27T20:33:42.896Z,2.80
2018-12-27T20:36:12.489Z,2.90
2018-12-27T20:38:42.009Z,2.80
2018-12-27T20:41:11.685Z,2.70
2018-12-27T20:43:41.287Z,2.70
2018-12-27T20:46:10.756Z,2.70
2018-12-27T20:48:40.276Z,2.60
2018-12-27T20:51:10.013Z,2.70
2018-12-27T20:53:39.421Z,2.80
2018-12-27T20:56:08.899Z,2.80
2018-12-27T20:58:38.277Z,2.80
2018-12-27T21:01:08.051Z,2.80
2018-12-27T21:03:37.520Z,2.80
2018-12-27T21:06:07.387Z,2.80
2018-12-27T21:08:36.776Z,2.90
2018-12-27T21:11:06.191Z,2.90
2018-12-27T21:13:35.742Z,2.90
2018-12-27T21:16:05.151Z,3.00
2018-12-27T21:18:34.833Z,3.20
2018-12-27T21:21:04.353Z,3.30
2018-12-27T21:23:33.841Z,3.30
2018-12-27T21:26:03.277Z,3.30
2018-12-27T21:28:32.676Z,3.30
2018-12-27T21:31:02.433Z,3.40
2018-12-27T21:33:31.974Z,3.40
2018-12-27T21:36:01.405Z,3.20
2018-12-27T21:38:31.068Z,3.20
2018-12-27T21:41:00.747Z,3.30
2018-12-27T21:43:30.424Z,3.30
2018-12-27T21:46:00.177Z,3.40
2018-12-27T21:48:29.794Z,3.40
2018-12-27T21:50:59.595Z,3.40
2018-12-27T21:53:29.161Z,3.40
2018-12-27T21:55:58.680Z,3.40
2018-12-27T21:58:28.342Z,3.40
2018-12-27T22:00:57.935Z,3.40
2018-12-27T22:03:27.420Z,3.40
2018-12-27T22:05:56.894Z,3.50
2018-12-27T22:08:28.644Z,3.50
2018-12-27T22:10:57.715Z,3.50
2018-12-27T22:13:27.124Z,3.40
2018-12-27T22:15:56.625Z,3.40
2018-12-27T22:18:26.084Z,3.30
2018-12-27T22:20:55.531Z,3.20
2018-12-27T22:23:24.975Z,3.20
2018-12-27T22:25:54.356Z,3.20
2018-12-27T22:28:24.154Z,3.20
2018-12-27T22:30:53.538Z,3.30
2018-12-27T22:33:23.076Z,3.30
2018-12-27T22:35:52.763Z,3.40
2018-12-27T22:38:22.153Z,3.30
2018-12-27T22:40:51.847Z,3.30
2018-12-27T22:43:21.577Z,3.30
2018-12-27T22:45:51.001Z,3.30
2018-12-27T22:48:20.508Z,3.20
2018-12-27T22:50:50.025Z,3.20
2018-12-27T22:53:19.607Z,3.20
2018-12-27T22:55:56.976Z,3.10
2018-12-27T22:58:26.515Z,3.00
2018-12-27T23:00:57.223Z,2.90
2018-12-27T23:03:26.595Z,2.90
2018-12-27T23:05:56.068Z,3.00
2018-12-27T23:08:25.417Z,3.10
2018-12-27T23:10:55.051Z,3.10
2018-12-27T23:13:24.471Z,3.10
2018-12-27T23:15:54.048Z,3.20
2018-12-27T23:18:23.758Z,3.20
2018-12-27T23:20:53.324Z,3.10
2018-12-27T23:23:22.777Z,3.10
2018-12-27T23:25:52.395Z,3.00
2018-12-27T23:28:22.032Z,3.00
2018-12-27T23:30:51.511Z,2.90
2018-12-27T23:33:20.874Z,2.80
2018-12-27T23:35:50.598Z,2.80
2018-12-27T23:38:19.981Z,2.90
2018-12-27T23:40:49.630Z,3.00
2018-12-27T23:43:19.143Z,3.00
2018-12-27T23:45:48.570Z,2.90
2018-12-27T23:48:18.173Z,3.00
2018-12-27T23:50:48.050Z,3.00
2018-12-27T23:53:17.677Z,3.00
2018-12-27T23:55:47.464Z,3.10
2018-12-27T23:58:17.395Z,3.10
